Time;durP1;ratioP1;P1;durP2;ratioP2;P2;SDS_P1;SDS_P2;PMS_P1;PMS_P2;Temp;Humidity;BMP_temperature;BMP_pressure;BME280_temperature;BME280_humidity;BME280_pressure;Samples;Min_cycle;Max_cycle;Signal;HPM_P1;HPM_P2
2024/02/08 00:01:24;;;;;;;35.22;27.50;;;;;;;;;;9942169;28;20127;-74
2024/02/08 00:06:16;;;;;;;39.65;30.27;;;;;;;;;;9942130;28;20051;-74
2024/02/08 00:11:08;;;;;;;40.78;29.40;;;;;;;;;;9941274;28;20467;-74
2024/02/08 00:16:00;;;;;;;41.35;29.13;;;;;;;;;;9949815;28;20119;-74
2024/02/08 00:20:52;;;;;;;44.83;30.05;;;;;;;;;;9938365;28;20537;-74
2024/02/08 00:25:46;;;;;;;45.95;32.40;;;;;;;;;;9934509;28;20043;-74
2024/02/08 00:30:41;;;;;;;43.35;31.08;;;;;;;;;;9925069;28;20363;-74
2024/02/08 00:35:33;;;;;;;36.40;27.90;;;;;;;;;;9948896;28;20101;-74
2024/02/08 00:40:26;;;;;;;39.25;31.60;;;;;;;;;;9949686;28;20452;-74
2024/02/08 00:45:22;;;;;;;42.42;29.25;;;;;;;;;;9949723;28;20042;-74
2024/02/08 00:50:14;;;;;;;38.72;27.40;;;;;;;;;;9949285;28;20046;-74
2024/02/08 00:55:06;;;;;;;44.30;28.77;;;;;;;;;;9948592;28;20418;-74
2024/02/08 00:59:58;;;;;;;40.17;28.95;;;;;;;;;;9941176;28;20374;-74
2024/02/08 01:04:50;;;;;;;44.42;28.65;;;;;;;;;;9946941;28;20054;-74
2024/02/08 01:09:42;;;;;;;38.30;28.17;;;;;;;;;;9946494;28;20064;-74
2024/02/08 01:14:34;;;;;;;34.45;25.77;;;;;;;;;;9947963;28;20046;-74
2024/02/08 01:19:25;;;;;;;33.47;23.45;;;;;;;;;;9948701;28;20109;-74
2024/02/08 01:24:18;;;;;;;41.13;28.45;;;;;;;;;;9948586;28;20043;-74
2024/02/08 01:29:10;;;;;;;36.38;24.05;;;;;;;;;;9948455;28;20039;-74
2024/02/08 01:34:05;;;;;;;32.72;24.90;;;;;;;;;;9925773;28;20077;-74
2024/02/08 01:38:58;;;;;;;28.63;22.70;;;;;;;;;;9912059;28;20046;-74
2024/02/08 01:43:52;;;;;;;31.00;22.33;;;;;;;;;;9911298;28;20051;-74
2024/02/08 01:48:44;;;;;;;35.40;22.67;;;;;;;;;;9895288;28;20053;-74
2024/02/08 01:53:39;;;;;;;29.85;22.83;;;;;;;;;;9911362;28;20463;-75
2024/02/08 01:58:32;;;;;;;30.98;23.67;;;;;;;;;;9911741;28;20106;-74
2024/02/08 02:03:36;;;;;;;45.33;25.17;;;;;;;;;;9892758;28;20466;-74
2024/02/08 02:08:33;;;;;;;33.63;22.55;;;;;;;;;;9911288;28;20482;-74
2024/02/08 02:13:26;;;;;;;29.40;21.67;;;;;;;;;;9909848;28;20125;-74
2024/02/08 02:18:18;;;;;;;37.70;23.45;;;;;;;;;;9895146;28;20047;-74
2024/02/08 02:23:10;;;;;;;31.60;23.65;;;;;;;;;;9919200;28;20050;-74
2024/02/08 02:28:03;;;;;;;35.75;24.08;;;;;;;;;;9909784;28;20461;-74
2024/02/08 02:32:59;;;;;;;42.45;28.20;;;;;;;;;;9893693;28;20043;-74
2024/02/08 02:37:52;;;;;;;34.45;26.88;;;;;;;;;;9911136;28;20050;-74
2024/02/08 02:42:44;;;;;;;40.92;26.15;;;;;;;;;;9911554;28;20462;-74
2024/02/08 02:47:36;;;;;;;34.75;25.65;;;;;;;;;;9908812;28;20466;-74
2024/02/08 02:52:28;;;;;;;31.20;25.17;;;;;;;;;;9909056;28;20383;-74
2024/02/08 02:57:20;;;;;;;36.45;24.58;;;;;;;;;;9908253;28;20043;-75
2024/02/08 03:02:12;;;;;;;33.50;22.63;;;;;;;;;;9909317;28;20453;-74
2024/02/08 03:07:06;;;;;;;33.38;23.17;;;;;;;;;;9915644;28;20059;-74
2024/02/08 03:11:58;;;;;;;27.15;20.88;;;;;;;;;;9907948;28;20047;-74
2024/02/08 03:16:51;;;;;;;29.48;21.27;;;;;;;;;;9908562;28;20511;-74
2024/02/08 03:21:45;;;;;;;32.35;21.13;;;;;;;;;;9908468;28;20051;-74
2024/02/08 03:26:40;;;;;;;33.67;20.77;;;;;;;;;;9907509;28;20130;-74
2024/02/08 03:31:32;;;;;;;27.15;21.60;;;;;;;;;;9906779;28;20051;-74
2024/02/08 03:36:27;;;;;;;25.83;19.40;;;;;;;;;;9908127;28;20475;-74
2024/02/08 03:41:19;;;;;;;28.42;19.83;;;;;;;;;;9907201;28;20047;-74
2024/02/08 03:46:11;;;;;;;21.27;16.65;;;;;;;;;;9906947;28;20134;-74
2024/02/08 03:51:03;;;;;;;24.60;17.27;;;;;;;;;;9906937;28;20130;-75
2024/02/08 03:55:55;;;;;;;17.88;14.25;;;;;;;;;;9906789;28;20055;-74
2024/02/08 04:00:50;;;;;;;22.08;15.80;;;;;;;;;;9905543;28;20463;-74
2024/02/08 04:05:58;;;;;;;21.10;15.85;;;;;;;;;;9907682;28;20043;-75
2024/02/08 04:57:13;;;;;;;18.55;13.90;;;;;;;;;;9905886;28;20043;-74
2024/02/08 05:02:06;;;;;;;18.55;14.40;;;;;;;;;;9905430;28;20047;-74
2024/02/08 05:06:58;;;;;;;19.15;14.52;;;;;;;;;;9905433;28;20054;-74
2024/02/08 05:11:50;;;;;;;25.05;15.50;;;;;;;;;;9905621;28;20378;-75
2024/02/08 05:16:42;;;;;;;24.63;17.13;;;;;;;;;;9904674;28;20062;-74
2024/02/08 05:21:39;;;;;;;29.30;18.25;;;;;;;;;;9912347;28;20054;-75
2024/02/08 05:26:31;;;;;;;37.15;24.95;;;;;;;;;;9911613;28;20106;-74
2024/02/08 05:31:27;;;;;;;29.27;21.63;;;;;;;;;;9912572;28;20145;-74
2024/02/08 05:36:19;;;;;;;30.17;21.88;;;;;;;;;;9911561;28;20053;-74
2024/02/08 05:41:17;;;;;;;23.38;15.23;;;;;;;;;;9911222;28;20082;-74
2024/02/08 05:46:09;;;;;;;22.52;14.70;;;;;;;;;;9911430;28;20102;-73
2024/02/08 05:51:02;;;;;;;20.70;14.30;;;;;;;;;;9911651;28;20054;-73
2024/02/08 05:55:59;;;;;;;24.05;18.05;;;;;;;;;;9912032;28;20235;-73
2024/02/08 06:01:01;;;;;;;68.50;52.58;;;;;;;;;;9910146;28;20052;-73
2024/02/08 06:06:06;;;;;;;32.35;27.75;;;;;;;;;;9910570;28;20065;-74
2024/02/08 06:11:04;;;;;;;27.42;21.48;;;;;;;;;;9910573;28;20117;-74
2024/02/08 06:16:08;;;;;;;23.30;20.10;;;;;;;;;;9909448;28;20051;-75
2024/02/08 06:21:12;;;;;;;110.82;89.05;;;;;;;;;;9915574;28;20043;-74
2024/02/08 06:31:06;;;;;;;25.63;16.10;;;;;;;;;;9932294;28;20055;-75
2024/02/08 06:35:58;;;;;;;26.00;17.85;;;;;;;;;;9943669;28;20046;-75
2024/02/08 06:45:52;;;;;;;42.45;26.33;;;;;;;;;;9933387;28;20119;-76
2024/02/08 07:37:36;;;;;;;53.40;44.80;;;;;;;;;;9905763;28;20352;-74
2024/02/08 07:42:41;;;;;;;45.20;33.38;;;;;;;;;;9917655;28;20478;-75
2024/02/08 07:47:34;;;;;;;43.55;37.22;;;;;;;;;;9908639;28;20079;-74
2024/02/08 07:52:29;;;;;;;41.03;31.35;;;;;;;;;;9905875;28;20428;-75
2024/02/08 07:57:26;;;;;;;38.03;25.65;;;;;;;;;;9905799;28;20078;-75
2024/02/08 08:02:23;;;;;;;30.80;24.52;;;;;;;;;;9903785;28;20462;-75
2024/02/08 08:07:22;;;;;;;38.75;27.25;;;;;;;;;;9903092;28;20098;-74
2024/02/08 08:12:18;;;;;;;;;;;;;;;;;;9906482;28;20046;-75
2024/02/08 08:27:27;;;;;;;41.67;31.85;;;;;;;;;;9907454;28;20743;-78
2024/02/08 08:37:44;;;;;;;33.80;23.25;;;;;;;;;;9901939;28;20490;-78
2024/02/08 08:42:36;;;;;;;38.00;25.98;;;;;;;;;;9903762;28;20046;-78
2024/02/08 08:47:28;;;;;;;33.78;24.33;;;;;;;;;;9900517;28;20051;-77
2024/02/08 08:52:23;;;;;;;34.63;24.33;;;;;;;;;;9901253;28;20356;-78
2024/02/08 08:57:16;;;;;;;31.98;24.35;;;;;;;;;;9911329;28;20043;-78
2024/02/08 09:02:08;;;;;;;35.97;21.88;;;;;;;;;;9911742;28;20138;-78
2024/02/08 09:07:10;;;;;;;36.15;23.55;;;;;;;;;;9911340;28;20359;-78
2024/02/08 09:12:05;;;;;;;36.58;22.35;;;;;;;;;;9908377;28;20090;-78
2024/02/08 09:16:57;;;;;;;36.95;24.23;;;;;;;;;;9909820;28;20047;-77
2024/02/08 09:21:52;;;;;;;31.63;24.17;;;;;;;;;;9910802;28;20074;-78
2024/02/08 09:31:58;;;;;;;41.00;22.85;;;;;;;;;;9919227;28;20430;-79
2024/02/08 09:36:57;;;;;;;34.72;24.92;;;;;;;;;;9909962;28;20490;-78
2024/02/08 09:41:49;;;;;;;32.55;24.40;;;;;;;;;;9909913;28;20047;-78
2024/02/08 09:51:40;;;;;;;29.85;23.55;;;;;;;;;;9910195;28;20549;-78
2024/02/08 09:56:38;;;;;;;36.13;24.33;;;;;;;;;;9896647;28;20051;-79
2024/02/08 10:01:35;;;;;;;30.38;23.30;;;;;;;;;;9895799;28;20070;-88
2024/02/08 10:06:38;;;;;;;31.92;22.40;;;;;;;;;;9909366;28;20047;-75
2024/02/08 10:11:38;;;;;;;35.55;23.42;;;;;;;;;;9911281;28;20050;-83
2024/02/08 10:16:42;;;;;;;;;;;;;;;;;;9895286;28;20055;-82
2024/02/08 10:21:35;;;;;;;32.35;24.30;;;;;;;;;;9908321;28;20435;-82
2024/02/08 10:26:38;;;;;;;37.08;25.98;;;;;;;;;;9907738;28;21110;-82
2024/02/08 10:31:37;;;;;;;33.45;22.92;;;;;;;;;;9906078;28;20051;-82
2024/02/08 10:36:35;;;;;;;31.90;23.38;;;;;;;;;;9907300;28;20474;-82
2024/02/08 10:41:57;;;;;;;31.73;20.27;;;;;;;;;;9894344;28;20055;-82
2024/02/08 10:47:06;;;;;;;33.45;21.45;;;;;;;;;;9908265;28;20058;-82
2024/02/08 10:52:02;;;;;;;32.53;20.05;;;;;;;;;;9909215;28;20359;-82
2024/02/08 10:57:06;;;;;;;34.72;20.40;;;;;;;;;;9909237;28;20479;-83
2024/02/08 11:02:01;;;;;;;33.88;22.35;;;;;;;;;;9907661;28;20497;-82
2024/02/08 11:06:56;;;;;;;30.00;20.48;;;;;;;;;;9897886;28;20367;-82
2024/02/08 11:11:59;;;;;;;36.28;21.85;;;;;;;;;;9907031;28;20070;-83
2024/02/08 11:16:51;;;;;;;28.40;19.75;;;;;;;;;;9906531;28;20071;-83
2024/02/08 11:21:43;;;;;;;31.90;19.40;;;;;;;;;;9907242;28;20043;-84
2024/02/08 11:26:39;;;;;;;28.23;20.85;;;;;;;;;;9907076;28;20391;-83
2024/02/08 11:31:41;;;;;;;27.25;19.77;;;;;;;;;;9892028;28;20047;-83
2024/02/08 11:36:35;;;;;;;32.78;20.30;;;;;;;;;;9906865;28;20427;-83
2024/02/08 11:41:31;;;;;;;35.50;22.15;;;;;;;;;;9906666;28;20125;-84
2024/02/08 11:46:24;;;;;;;28.58;21.23;;;;;;;;;;9906726;28;20047;-83
2024/02/08 11:51:17;;;;;;;31.48;20.55;;;;;;;;;;9890777;28;20047;-84
2024/02/08 11:56:09;;;;;;;28.45;18.90;;;;;;;;;;9905361;28;20518;-84
2024/02/08 12:01:03;;;;;;;30.88;19.65;;;;;;;;;;9905900;28;20043;-84
2024/02/08 12:05:57;;;;;;;24.30;18.17;;;;;;;;;;9906999;28;20059;-84
2024/02/08 12:10:50;;;;;;;31.42;19.45;;;;;;;;;;9905983;28;20055;-84
2024/02/08 12:16:02;;;;;;;31.45;17.70;;;;;;;;;;9890563;28;20043;-84
2024/02/08 12:20:55;;;;;;;22.98;16.88;;;;;;;;;;9897780;28;20054;-83
2024/02/08 12:25:53;;;;;;;27.33;18.42;;;;;;;;;;9905577;28;20053;-85
2024/02/08 12:30:45;;;;;;;30.58;21.17;;;;;;;;;;9913785;28;20389;-85
2024/02/08 12:35:42;;;;;;;26.65;16.67;;;;;;;;;;9918617;28;20050;-85
2024/02/08 12:40:34;;;;;;;21.05;15.93;;;;;;;;;;9921579;28;20047;-86
2024/02/08 12:45:28;;;;;;;23.80;17.05;;;;;;;;;;9919856;28;20059;-85
2024/02/08 12:50:21;;;;;;;26.02;16.33;;;;;;;;;;9918491;28;20094;-86
2024/02/08 12:55:19;;;;;;;22.38;15.50;;;;;;;;;;9898278;28;20047;-86
2024/02/08 13:00:13;;;;;;;22.75;17.10;;;;;;;;;;9914811;28;20058;-85
2024/02/08 13:05:06;;;;;;;29.52;18.45;;;;;;;;;;9914261;28;20142;-84
2024/02/08 13:10:03;;;;;;;25.55;16.52;;;;;;;;;;9913534;28;20059;-85
2024/02/08 13:15:02;;;;;;;22.58;16.35;;;;;;;;;;9913677;28;20055;-86
2024/02/08 13:19:57;;;;;;;;;;;;;;;;;;9898321;28;20541;-86
2024/02/08 13:25:30;;;;;;;24.52;17.27;;;;;;;;;;9912646;28;19988;-86
2024/02/08 13:30:36;;;;;;;23.50;17.88;;;;;;;;;;9895309;28;20063;-86
2024/02/08 13:35:44;;;;;;;24.55;17.13;;;;;;;;;;9912872;28;20067;-86
2024/02/08 13:40:44;;;;;;;25.13;17.13;;;;;;;;;;9912371;28;20048;-86
2024/02/08 13:45:44;;;;;;;24.92;16.48;;;;;;;;;;9927007;28;20066;-86
2024/02/08 13:50:46;;;;;;;29.50;17.73;;;;;;;;;;9889738;28;20066;-86
2024/02/08 13:55:58;;;;;;;26.13;17.55;;;;;;;;;;9899114;28;20147;-84
2024/02/08 14:00:54;;;;;;;27.67;16.92;;;;;;;;;;9911291;28;20051;-87
2024/02/08 14:05:51;;;;;;;24.17;17.20;;;;;;;;;;9917658;28;20046;-81
2024/02/08 14:10:45;;;;;;;23.52;17.23;;;;;;;;;;9936529;28;20055;-86
2024/02/08 14:15:45;;;;;;;23.05;17.15;;;;;;;;;;9937046;28;20061;-87
2024/02/08 14:20:52;;;;;;;22.88;16.23;;;;;;;;;;9924091;28;20059;-87
2024/02/08 14:30:55;;;;;;;27.73;16.88;;;;;;;;;;9935391;28;20050;-87
2024/02/08 14:35:48;;;;;;;27.48;17.48;;;;;;;;;;9928693;28;20142;-84
2024/02/08 14:40:41;;;;;;;24.33;17.73;;;;;;;;;;9929219;28;20264;-74
2024/02/08 14:45:38;;;;;;;26.98;17.73;;;;;;;;;;9920070;28;20035;-84
2024/02/08 14:55:47;;;;;;;26.02;20.42;;;;;;;;;;9912432;28;20426;-74
2024/02/08 15:05:46;;;;;;;31.05;18.38;;;;;;;;;;9907258;28;20051;-74
2024/02/08 15:10:43;;;;;;;26.83;18.38;;;;;;;;;;9918181;28;20138;-74
2024/02/08 15:15:40;;;;;;;23.63;18.30;;;;;;;;;;9907615;28;20154;-75
2024/02/08 15:20:45;;;;;;;27.17;18.02;;;;;;;;;;9918541;28;20114;-74
2024/02/08 15:25:44;;;;;;;26.75;17.67;;;;;;;;;;9909589;28;20053;-74
2024/02/08 15:30:36;;;;;;;24.73;17.93;;;;;;;;;;9922756;28;20051;-74
2024/02/08 15:35:39;;;;;;;26.63;17.38;;;;;;;;;;9905924;28;20753;-75
2024/02/08 15:40:31;;;;;;;29.77;17.10;;;;;;;;;;9923503;28;20082;-75
2024/02/08 15:45:27;;;;;;;25.15;17.35;;;;;;;;;;9910505;28;20050;-75
2024/02/08 15:50:24;;;;;;;27.25;19.13;;;;;;;;;;9922929;28;20133;-75
2024/02/08 15:55:16;;;;;;;27.40;19.13;;;;;;;;;;9905453;28;20047;-74
2024/02/08 16:05:22;;;;;;;28.92;19.98;;;;;;;;;;9918326;28;20410;-74
2024/02/08 16:10:24;;;;;;;31.52;19.65;;;;;;;;;;9923220;28;20668;-75
2024/02/08 16:15:17;;;;;;;35.35;20.70;;;;;;;;;;9909788;28;20134;-75
2024/02/08 16:25:09;;;;;;;31.27;21.35;;;;;;;;;;9928010;28;20165;-74
2024/02/08 16:30:21;;;;;;;36.58;21.98;;;;;;;;;;9938605;28;20505;-74
2024/02/08 16:40:29;;;;;;;32.17;25.23;;;;;;;;;;9933175;28;20133;-72
2024/02/08 16:45:34;;;;;;;32.73;24.90;;;;;;;;;;9929607;28;20424;-72
2024/02/08 16:50:34;;;;;;;75.18;57.22;;;;;;;;;;9938709;28;20058;-73
2024/02/08 16:55:48;;;;;;;54.50;39.78;;;;;;;;;;9926964;28;20066;-73
2024/02/08 17:00:47;;;;;;;131.10;83.55;;;;;;;;;;9930689;28;20053;-74
2024/02/08 17:05:49;;;;;;;98.45;63.78;;;;;;;;;;9918019;28;20048;-74
2024/02/08 17:10:47;;;;;;;114.50;83.32;;;;;;;;;;9934441;28;20137;-73
2024/02/08 17:16:45;;;;;;;57.15;42.03;;;;;;;;;;9938358;28;20450;-73
2024/02/08 17:21:15;;;;;;;52.40;30.73;;;;;;;;;;9922364;28;20047;-72
2024/02/08 17:26:26;;;;;;;39.60;28.70;;;;;;;;;;9924227;28;20367;-73
2024/02/08 17:31:33;;;;;;;57.00;35.45;;;;;;;;;;9934764;28;20046;-73
2024/02/08 17:36:32;;;;;;;41.80;28.45;;;;;;;;;;9935663;28;20130;-75
2024/02/08 17:41:26;;;;;;;34.60;25.30;;;;;;;;;;9943906;28;20540;-72
2024/02/08 17:46:22;;;;;;;46.40;29.95;;;;;;;;;;9943929;28;20050;-73
2024/02/08 17:51:21;;;;;;;42.65;31.30;;;;;;;;;;9943665;28;20055;-74
2024/02/08 17:56:17;;;;;;;54.60;43.35;;;;;;;;;;9937303;28;20069;-73
2024/02/08 18:01:15;;;;;;;37.45;29.40;;;;;;;;;;9943369;28;20051;-73
2024/02/08 18:06:11;;;;;;;37.50;30.42;;;;;;;;;;9937010;28;20394;-73
2024/02/08 18:11:07;;;;;;;51.50;37.42;;;;;;;;;;9944804;28;20055;-73
2024/02/08 18:16:09;;;;;;;52.25;38.75;;;;;;;;;;9945154;28;20148;-74
2024/02/08 18:21:04;;;;;;;49.00;35.28;;;;;;;;;;9905317;29;20047;-74
2024/02/08 18:25:56;;;;;;;47.80;32.88;;;;;;;;;;9903510;28;20613;-74
2024/02/08 18:30:55;;;;;;;42.50;31.90;;;;;;;;;;9893650;29;20784;-73
2024/02/08 18:35:48;;;;;;;45.70;33.03;;;;;;;;;;9893481;28;20477;-73
2024/02/08 18:40:40;;;;;;;39.83;30.67;;;;;;;;;;9901025;28;20625;-73
2024/02/08 18:45:36;;;;;;;35.97;30.17;;;;;;;;;;9879144;29;20465;-72
2024/02/08 18:50:33;;;;;;;43.78;32.40;;;;;;;;;;9904414;29;20067;-73
2024/02/08 18:55:44;;;;;;;54.90;38.38;;;;;;;;;;9901145;28;20139;-72
2024/02/08 19:00:39;;;;;;;61.30;42.33;;;;;;;;;;9887769;28;20058;-72
2024/02/08 19:05:40;;;;;;;46.75;34.22;;;;;;;;;;9899467;29;20093;-72
2024/02/08 19:10:35;;;;;;;;;;;;;;;;;;9899657;29;20174;-72
2024/02/08 19:15:27;;;;;;;51.45;39.17;;;;;;;;;;9894450;28;19923;-72
2024/02/08 19:20:25;;;;;;;57.60;42.28;;;;;;;;;;9928039;28;20051;-73
2024/02/08 19:25:21;;;;;;;50.88;38.10;;;;;;;;;;9918348;28;20086;-72
2024/02/08 19:30:13;;;;;;;51.95;38.78;;;;;;;;;;9942211;28;20113;-75
2024/02/08 19:35:09;;;;;;;47.78;38.40;;;;;;;;;;9930887;28;20070;-73
2024/02/08 19:40:10;;;;;;;54.22;38.83;;;;;;;;;;9909972;28;20054;-75
2024/02/08 19:45:15;;;;;;;50.78;37.00;;;;;;;;;;9910019;28;20046;-73
2024/02/08 19:50:09;;;;;;;52.80;34.60;;;;;;;;;;9913590;28;20591;-73
2024/02/08 19:55:14;;;;;;;55.33;39.03;;;;;;;;;;9928555;28;20098;-73
2024/02/08 20:00:17;;;;;;;66.60;46.55;;;;;;;;;;9925744;28;20474;-74
2024/02/08 20:05:10;;;;;;;60.67;38.00;;;;;;;;;;9903634;28;20047;-74
2024/02/08 20:10:11;;;;;;;47.97;33.97;;;;;;;;;;9931998;28;20170;-74
2024/02/08 20:15:16;;;;;;;50.45;36.00;;;;;;;;;;9916221;28;20363;-74
2024/02/08 20:20:18;;;;;;;48.42;34.33;;;;;;;;;;9921310;28;20043;-74
2024/02/08 20:25:11;;;;;;;49.33;36.67;;;;;;;;;;9926332;28;20053;-74
2024/02/08 20:30:08;;;;;;;49.40;35.92;;;;;;;;;;9937545;28;20130;-74
2024/02/08 20:35:01;;;;;;;44.92;33.75;;;;;;;;;;9938341;28;20087;-74
2024/02/08 20:39:53;;;;;;;41.85;33.22;;;;;;;;;;9938470;28;20050;-74
2024/02/08 20:44:46;;;;;;;54.65;33.53;;;;;;;;;;9940903;28;20062;-74
2024/02/08 20:49:40;;;;;;;46.13;33.78;;;;;;;;;;9934715;28;20058;-74
2024/02/08 20:54:36;;;;;;;55.63;37.08;;;;;;;;;;9944232;28;20364;-75
2024/02/08 20:59:29;;;;;;;52.95;35.53;;;;;;;;;;9947894;28;20077;-74
2024/02/08 21:04:21;;;;;;;47.88;35.60;;;;;;;;;;9947673;28;20122;-74
2024/02/08 21:09:14;;;;;;;52.65;35.03;;;;;;;;;;9947634;28;20043;-74
2024/02/08 21:14:07;;;;;;;54.90;40.55;;;;;;;;;;9946534;28;20058;-75
2024/02/08 21:19:09;;;;;;;66.35;40.63;;;;;;;;;;9947321;28;20429;-73
2024/02/08 21:24:04;;;;;;;58.25;43.10;;;;;;;;;;9946671;28;20050;-74
2024/02/08 21:28:56;;;;;;;56.25;42.15;;;;;;;;;;9947073;28;20043;-74
2024/02/08 21:33:52;;;;;;;59.38;40.90;;;;;;;;;;9946552;28;20505;-73
2024/02/08 21:38:46;;;;;;;55.72;41.17;;;;;;;;;;9947759;28;20042;-74
2024/02/08 21:43:39;;;;;;;65.50;46.67;;;;;;;;;;9945767;28;20409;-73
2024/02/08 21:48:31;;;;;;;55.28;40.83;;;;;;;;;;9947077;28;20089;-73
2024/02/08 21:53:23;;;;;;;64.60;42.95;;;;;;;;;;9946678;28;20042;-73
2024/02/08 21:58:17;;;;;;;57.40;44.10;;;;;;;;;;9946403;28;20050;-74
2024/02/08 22:03:10;;;;;;;72.45;50.53;;;;;;;;;;9946642;28;20047;-74
2024/02/08 22:08:03;;;;;;;54.03;43.00;;;;;;;;;;9937277;28;20098;-74
2024/02/08 22:12:55;;;;;;;60.92;46.03;;;;;;;;;;9944007;28;20059;-74
2024/02/08 22:17:54;;;;;;;62.53;45.22;;;;;;;;;;9946220;28;20063;-75
2024/02/08 22:22:46;;;;;;;59.47;43.17;;;;;;;;;;9945284;28;20134;-72
2024/02/08 22:27:40;;;;;;;62.00;44.92;;;;;;;;;;9933998;28;20050;-72
2024/02/08 22:32:35;;;;;;;56.58;43.25;;;;;;;;;;9945769;28;20141;-72
2024/02/08 22:37:27;;;;;;;61.60;42.13;;;;;;;;;;9945789;28;20043;-72
2024/02/08 22:42:20;;;;;;;58.50;42.05;;;;;;;;;;9944941;28;20466;-72
2024/02/08 22:47:12;;;;;;;63.80;45.03;;;;;;;;;;9945473;28;20049;-71
2024/02/08 22:52:05;;;;;;;61.65;44.58;;;;;;;;;;9932074;28;20084;-71
2024/02/08 22:56:57;;;;;;;57.78;44.50;;;;;;;;;;9932534;28;20049;-72
2024/02/08 23:01:52;;;;;;;67.75;43.45;;;;;;;;;;9932165;28;20054;-72
2024/02/08 23:06:47;;;;;;;63.80;46.53;;;;;;;;;;9925288;28;20062;-71
2024/02/08 23:11:43;;;;;;;69.07;48.17;;;;;;;;;;9933910;28;20256;-71
2024/02/08 23:16:35;;;;;;;68.63;45.47;;;;;;;;;;9939680;28;20105;-71
2024/02/08 23:21:28;;;;;;;65.78;48.30;;;;;;;;;;9944269;28;20043;-71
2024/02/08 23:26:20;;;;;;;73.50;48.00;;;;;;;;;;9944196;28;20055;-72
2024/02/08 23:31:17;;;;;;;62.75;46.80;;;;;;;;;;9926860;28;20073;-71
2024/02/08 23:36:10;;;;;;;60.65;45.00;;;;;;;;;;9943152;28;20049;-71
2024/02/08 23:41:13;;;;;;;58.70;45.20;;;;;;;;;;9931034;28;20521;-72
2024/02/08 23:46:07;;;;;;;63.35;46.95;;;;;;;;;;9906987;28;20058;-71
2024/02/08 23:50:59;;;;;;;59.80;43.25;;;;;;;;;;9906933;28;20057;-72
2024/02/08 23:55:54;;;;;;;63.28;41.65;;;;;;;;;;9907138;28;20386;-72
